Time;durP1;ratioP1;P1;durP2;ratioP2;P2;SDS_P1;SDS_P2;PMS_P1;PMS_P2;Temp;Humidity;BMP_temperature;BMP_pressure;BME280_temperature;BME280_humidity;BME280_pressure;Samples;Min_cycle;Max_cycle;Signal;HPM_P1;HPM_P2
2021/06/17 00:01:17;;;;;;;11.15;6.30;;;19.00;99.90;;;;;;5045832;28;20033;-74
2021/06/17 00:03:44;;;;;;;11.23;6.20;;;19.10;99.90;;;;;;5029302;28;20063;-74
2021/06/17 00:06:09;;;;;;;7.00;6.18;;;19.10;99.90;;;;;;5041344;28;20029;-74
2021/06/17 00:08:35;;;;;;;7.28;5.75;;;19.10;99.90;;;;;;5021487;28;20120;-74
2021/06/17 00:11:01;;;;;;;6.80;5.65;;;19.10;99.90;;;;;;5034395;28;20116;-73
2021/06/17 00:13:29;;;;;;;8.40;5.65;;;19.20;99.90;;;;;;5016291;28;20025;-73
2021/06/17 00:15:59;;;;;;;7.15;6.15;;;19.10;99.90;;;;;;5015548;28;20084;-73
2021/06/17 00:18:25;;;;;;;10.88;7.10;;;18.90;99.90;;;;;;5033438;28;20080;-73
2021/06/17 00:20:51;;;;;;;7.75;5.70;;;18.80;99.90;;;;;;5015404;28;20022;-73
2021/06/17 00:23:17;;;;;;;7.72;6.13;;;18.70;99.90;;;;;;5033440;28;20030;-73
2021/06/17 00:25:43;;;;;;;7.65;5.72;;;18.70;99.90;;;;;;5015415;28;20032;-73
2021/06/17 00:28:10;;;;;;;6.93;5.97;;;18.70;99.90;;;;;;5015446;28;20033;-73
2021/06/17 00:30:35;;;;;;;9.98;6.30;;;18.70;99.90;;;;;;5015147;28;20639;-73
2021/06/17 00:33:01;;;;;;;8.90;6.13;;;18.60;99.90;;;;;;5032979;28;20112;-73
2021/06/17 00:35:28;;;;;;;8.70;5.93;;;18.60;99.90;;;;;;5032970;28;20033;-73
2021/06/17 00:37:55;;;;;;;7.38;5.70;;;18.60;99.90;;;;;;5033134;28;20017;-74
2021/06/17 00:40:22;;;;;;;8.55;6.30;;;18.70;99.90;;;;;;5006234;28;20137;-73
2021/06/17 00:42:49;;;;;;;7.50;5.75;;;18.60;99.90;;;;;;5031260;28;20029;-74
2021/06/17 00:45:22;;;;;;;6.90;5.63;;;18.50;99.90;;;;;;5043365;28;20072;-73
2021/06/17 00:47:48;;;;;;;8.35;6.30;;;18.50;99.90;;;;;;5028474;28;20022;-73
2021/06/17 00:50:14;;;;;;;8.05;5.38;;;18.40;99.90;;;;;;5021383;28;20094;-73
2021/06/17 00:52:43;;;;;;;7.43;5.50;;;18.40;99.90;;;;;;5021561;28;20578;-73
2021/06/17 00:55:09;;;;;;;7.70;5.93;;;18.40;99.90;;;;;;5041803;28;20075;-73
2021/06/17 00:57:35;;;;;;;5.90;5.40;;;18.40;99.90;;;;;;5032594;28;20131;-73
2021/06/17 01:00:01;;;;;;;8.55;5.70;;;18.40;99.90;;;;;;5025560;28;20196;-73
2021/06/17 01:02:26;;;;;;;8.23;5.05;;;18.40;99.90;;;;;;5035572;28;20057;-73
2021/06/17 01:04:52;;;;;;;10.30;5.35;;;18.50;99.90;;;;;;5032467;28;20029;-74
2021/06/17 01:07:36;;;;;;;9.23;6.25;;;18.40;99.90;;;;;;5032485;28;20030;-73
2021/06/17 01:10:07;;;;;;;8.90;5.63;;;18.30;99.90;;;;;;5032327;28;20025;-73
2021/06/17 01:12:33;;;;;;;6.22;5.50;;;18.40;99.90;;;;;;5019381;28;20361;-74
2021/06/17 01:15:08;;;;;;;11.85;6.57;;;18.40;99.90;;;;;;5032187;28;20035;-75
2021/06/17 01:17:39;;;;;;;9.13;6.63;;;18.00;99.90;;;;;;5032416;28;20029;-74
2021/06/17 01:20:11;;;;;;;8.95;6.60;;;17.90;99.90;;;;;;5014415;28;20049;-75
2021/06/17 01:22:52;;;;;;;7.57;6.38;;;17.90;99.90;;;;;;5032276;28;20510;-74
2021/06/17 01:25:44;;;;;;;13.15;6.90;;;18.00;99.90;;;;;;5032048;28;20025;-73
2021/06/17 01:28:16;;;;;;;7.60;6.80;;;18.00;99.90;;;;;;5033872;28;20025;-73
2021/06/17 01:31:09;;;;;;;8.80;6.10;;;18.10;99.90;;;;;;5051855;28;20047;-73
2021/06/17 01:33:41;;;;;;;7.10;6.38;;;18.00;99.90;;;;;;5016006;28;20037;-73
2021/06/17 01:36:21;;;;;;;9.75;6.85;;;18.00;99.90;;;;;;5007759;28;20026;-73
2021/06/17 01:38:52;;;;;;;12.57;6.57;;;18.00;99.90;;;;;;5003112;28;20044;-73
2021/06/17 01:41:21;;;;;;;11.75;6.70;;;17.80;99.90;;;;;;5034902;28;20021;-73
2021/06/17 01:43:48;;;;;;;8.23;6.47;;;17.70;99.90;;;;;;5041546;28;20026;-76
2021/06/17 01:46:14;;;;;;;9.40;6.50;;;17.90;99.90;;;;;;5045294;28;20025;-75
2021/06/17 01:48:42;;;;;;;10.07;6.10;;;18.00;99.90;;;;;;5024449;28;20025;-74
2021/06/17 01:51:08;;;;;;;8.60;6.13;;;18.00;99.90;;;;;;5038343;28;20075;-75
2021/06/17 01:53:36;;;;;;;7.18;5.78;;;17.90;99.90;;;;;;5041067;28;20040;-75
2021/06/17 01:56:03;;;;;;;7.70;6.10;;;17.90;99.90;;;;;;5031623;28;20487;-75
2021/06/17 01:58:31;;;;;;;7.05;6.15;;;17.90;99.90;;;;;;5043146;28;20033;-74
2021/06/17 02:00:58;;;;;;;12.40;6.63;;;17.80;99.90;;;;;;5016747;28;20388;-74
2021/06/17 02:03:25;;;;;;;8.90;6.20;;;17.80;99.90;;;;;;5009820;28;20033;-74
2021/06/17 02:05:51;;;;;;;7.97;6.70;;;17.70;99.90;;;;;;5043817;28;20063;-74
2021/06/17 02:08:19;;;;;;;9.60;7.18;;;17.80;99.90;;;;;;5031601;28;20407;-75
2021/06/17 02:10:46;;;;;;;12.43;6.47;;;17.70;99.90;;;;;;5050217;28;20107;-75
2021/06/17 02:13:13;;;;;;;7.78;6.30;;;17.80;99.90;;;;;;5033406;28;20457;-74
2021/06/17 02:15:42;;;;;;;8.48;6.47;;;17.70;99.90;;;;;;5051360;28;20431;-74
2021/06/17 02:18:09;;;;;;;7.55;6.03;;;17.70;99.90;;;;;;5051422;28;20439;-75
2021/06/17 02:20:34;;;;;;;8.98;6.35;;;17.60;99.90;;;;;;5026769;28;20159;-75
2021/06/17 02:23:06;;;;;;;8.75;6.18;;;17.60;99.90;;;;;;5031460;28;20064;-76
2021/06/17 02:25:33;;;;;;;7.82;6.88;;;17.70;99.90;;;;;;5026454;28;20021;-75
2021/06/17 02:28:06;;;;;;;8.48;6.65;;;17.70;99.90;;;;;;5037852;28;20087;-75
2021/06/17 02:30:36;;;;;;;10.32;6.35;;;17.50;99.90;;;;;;5043226;28;20032;-75
2021/06/17 02:33:05;;;;;;;10.73;9.10;;;17.50;99.90;;;;;;5044613;28;20068;-74
2021/06/17 02:35:32;;;;;;;14.77;9.75;;;17.50;99.90;;;;;;5031200;28;20029;-74
2021/06/17 02:38:01;;;;;;;13.55;8.95;;;17.50;99.90;;;;;;5026833;28;20041;-74
2021/06/17 02:40:29;;;;;;;12.57;8.57;;;17.60;99.90;;;;;;5031125;28;20022;-75
2021/06/17 02:42:56;;;;;;;10.65;9.18;;;17.60;99.90;;;;;;5034874;28;20021;-74
2021/06/17 02:45:28;;;;;;;13.75;9.43;;;17.60;99.90;;;;;;5040622;28;20040;-74
2021/06/17 02:47:54;;;;;;;11.88;8.68;;;17.50;99.90;;;;;;5017942;28;20029;-75
2021/06/17 02:50:20;;;;;;;10.38;7.80;;;17.50;99.90;;;;;;5031010;28;20057;-75
2021/06/17 02:52:46;;;;;;;10.18;8.20;;;17.40;99.90;;;;;;5021888;28;20068;-75
2021/06/17 02:55:11;;;;;;;10.55;8.80;;;17.30;99.90;;;;;;5034132;28;20017;-74
2021/06/17 02:57:49;;;;;;;10.65;7.72;;;17.30;99.90;;;;;;5028784;28;20021;-73
2021/06/17 03:00:18;;;;;;;9.23;7.93;;;17.50;99.90;;;;;;5030982;28;20080;-73
2021/06/17 03:02:52;;;;;;;11.68;8.30;;;17.40;99.90;;;;;;5050509;28;20082;-74
2021/06/17 03:05:22;;;;;;;13.20;8.82;;;17.30;99.90;;;;;;5050859;28;20399;-73
2021/06/17 03:07:54;;;;;;;12.77;8.80;;;17.20;99.90;;;;;;5033245;28;20546;-75
2021/06/17 03:10:22;;;;;;;10.35;9.07;;;17.20;99.90;;;;;;5036566;28;20029;-74
2021/06/17 03:12:48;;;;;;;10.80;9.25;;;17.20;99.90;;;;;;5032858;28;20021;-74
2021/06/17 03:15:15;;;;;;;9.68;8.00;;;17.20;99.90;;;;;;5049610;28;20037;-74
2021/06/17 03:17:45;;;;;;;10.95;8.57;;;16.90;99.90;;;;;;5054497;28;20112;-75
2021/06/17 03:20:11;;;;;;;10.70;8.93;;;17.10;99.90;;;;;;5020637;28;20029;-75
2021/06/17 03:22:41;;;;;;;13.57;9.10;;;17.10;99.90;;;;;;5034510;28;20032;-75
2021/06/17 03:25:11;;;;;;;11.77;8.80;;;17.20;99.90;;;;;;5047810;28;20025;-75
2021/06/17 03:27:37;;;;;;;15.15;9.68;;;17.20;99.90;;;;;;5045173;28;20499;-75
2021/06/17 03:30:05;;;;;;;15.15;10.10;;;17.10;99.90;;;;;;5040886;28;20104;-75
2021/06/17 03:32:33;;;;;;;14.40;10.20;;;17.10;99.90;;;;;;5024986;28;20017;-75
2021/06/17 03:35:00;;;;;;;18.92;9.75;;;17.10;99.90;;;;;;5047504;28;20029;-75
2021/06/17 03:37:27;;;;;;;14.07;9.52;;;17.10;99.90;;;;;;5046311;28;20024;-75
2021/06/17 03:39:56;;;;;;;15.15;10.05;;;17.20;99.90;;;;;;5017528;28;20071;-74
2021/06/17 03:42:23;;;;;;;15.02;10.27;;;17.30;99.90;;;;;;5034065;28;20522;-74
2021/06/17 03:44:51;;;;;;;16.08;10.90;;;17.50;99.90;;;;;;5039681;28;20086;-73
2021/06/17 03:47:17;;;;;;;16.27;11.05;;;17.50;99.90;;;;;;5041154;28;20021;-74
2021/06/17 03:49:44;;;;;;;16.05;10.88;;;17.50;99.90;;;;;;5029407;28;20026;-74
2021/06/17 03:52:15;;;;;;;12.30;10.73;;;17.50;99.90;;;;;;5034084;28;20076;-74
2021/06/17 03:54:42;;;;;;;15.55;11.48;;;17.70;99.90;;;;;;5020570;28;20022;-75
2021/06/17 03:57:08;;;;;;;12.43;10.90;;;17.60;99.90;;;;;;5033848;28;20557;-75
2021/06/17 03:59:41;;;;;;;15.73;12.32;;;17.60;99.90;;;;;;5040528;28;20026;-75
2021/06/17 04:02:08;;;;;;;14.85;13.18;;;17.10;99.90;;;;;;5040459;28;20021;-75
2021/06/17 04:04:34;;;;;;;15.05;13.05;;;16.80;99.90;;;;;;5045815;28;20029;-74
2021/06/17 04:07:04;;;;;;;13.82;12.43;;;16.80;99.90;;;;;;5048314;28;20031;-74
2021/06/17 04:09:32;;;;;;;13.95;12.30;;;17.00;99.90;;;;;;5027248;28;20030;-73
2021/06/17 04:12:02;;;;;;;17.33;12.32;;;17.10;99.90;;;;;;5048711;28;20066;-73
2021/06/17 04:14:30;;;;;;;15.88;12.63;;;17.40;99.90;;;;;;5053258;28;20028;-74
2021/06/17 04:16:55;;;;;;;15.73;13.48;;;17.00;99.90;;;;;;5035559;28;20017;-74
2021/06/17 04:19:23;;;;;;;16.92;13.43;;;17.20;99.90;;;;;;5043845;28;20369;-74
2021/06/17 04:21:51;;;;;;;14.15;12.52;;;17.40;99.90;;;;;;5033398;28;20022;-73
2021/06/17 04:24:21;;;;;;;13.88;12.27;;;17.70;99.90;;;;;;5033383;28;20033;-76
2021/06/17 04:26:47;;;;;;;16.08;12.85;;;17.70;99.90;;;;;;5028904;28;20025;-75
2021/06/17 04:29:14;;;;;;;12.85;11.55;;;17.90;99.90;;;;;;5033157;28;20032;-74
2021/06/17 04:31:42;;;;;;;12.65;11.32;;;18.10;99.90;;;;;;5037308;28;20036;-74
2021/06/17 04:34:07;;;;;;;11.77;10.52;;;18.30;99.90;;;;;;5042246;28;20068;-75
2021/06/17 04:36:33;;;;;;;13.07;10.80;;;18.50;99.90;;;;;;5046495;28;20049;-74
2021/06/17 04:38:59;;;;;;;13.63;9.43;;;18.50;99.90;;;;;;5043897;28;20032;-74
2021/06/17 04:41:24;;;;;;;11.48;9.18;;;18.70;99.90;;;;;;5048840;28;20037;-74
2021/06/17 04:43:50;;;;;;;10.65;8.40;;;18.70;99.90;;;;;;5022770;28;20033;-72
2021/06/17 04:46:18;;;;;;;10.05;9.00;;;18.80;99.90;;;;;;5008487;28;20051;-73
2021/06/17 04:48:45;;;;;;;14.60;10.10;;;18.80;99.90;;;;;;5041751;28;20053;-74
2021/06/17 04:51:12;;;;;;;13.15;9.43;;;18.70;99.90;;;;;;5037056;28;20033;-73
2021/06/17 04:53:38;;;;;;;10.77;8.77;;;18.70;99.90;;;;;;5052755;28;20048;-76
2021/06/17 04:56:04;;;;;;;14.43;10.15;;;18.70;99.90;;;;;;5048244;28;20040;-74
2021/06/17 04:58:32;;;;;;;11.02;9.82;;;18.90;99.90;;;;;;5043739;28;20502;-73
2021/06/17 05:00:57;;;;;;;10.75;8.95;;;18.90;99.90;;;;;;5021146;28;20021;-75
2021/06/17 05:03:23;;;;;;;10.38;8.98;;;19.10;99.90;;;;;;5052472;28;20025;-75
2021/06/17 05:05:51;;;;;;;10.38;7.85;;;19.30;99.90;;;;;;5052317;28;20025;-74
2021/06/17 05:10:51;;;;;;;10.02;8.48;;;19.60;99.90;;;;;;5052143;28;20388;-73
2021/06/17 05:13:21;;;;;;;10.63;8.35;;;19.80;99.90;;;;;;5034333;28;20527;-73
2021/06/17 05:15:48;;;;;;;11.23;8.73;;;19.80;99.90;;;;;;5032654;28;20100;-72
2021/06/17 05:18:15;;;;;;;8.68;7.88;;;19.90;99.90;;;;;;5008682;28;20022;-72
2021/06/17 05:20:41;;;;;;;12.45;8.40;;;19.80;99.90;;;;;;5018876;28;20156;-72
2021/06/17 05:23:06;;;;;;;9.23;8.05;;;19.90;99.90;;;;;;5032388;28;20104;-72
2021/06/17 05:25:32;;;;;;;10.70;8.32;;;20.00;99.90;;;;;;5032120;28;20032;-72
2021/06/17 05:27:58;;;;;;;11.52;8.40;;;20.00;99.90;;;;;;5045220;28;20497;-72
2021/06/17 05:30:23;;;;;;;9.50;7.85;;;20.00;99.90;;;;;;5032146;28;20055;-72
2021/06/17 05:32:49;;;;;;;12.13;8.27;;;20.10;99.90;;;;;;5008788;28;20029;-72
2021/06/17 05:35:14;;;;;;;12.00;8.45;;;20.00;99.90;;;;;;5031437;28;20029;-72
2021/06/17 05:37:40;;;;;;;11.55;8.38;;;20.10;99.90;;;;;;5031817;28;20025;-74
2021/06/17 05:40:06;;;;;;;12.57;8.35;;;20.20;99.90;;;;;;5044133;28;20394;-72
2021/06/17 05:42:31;;;;;;;14.77;8.90;;;20.30;99.90;;;;;;5032045;28;20018;-72
2021/06/17 05:44:57;;;;;;;11.23;8.55;;;20.30;99.90;;;;;;5031845;28;20514;-72
2021/06/17 05:47:22;;;;;;;15.73;8.20;;;20.50;99.90;;;;;;5031829;28;20113;-72
2021/06/17 05:49:48;;;;;;;11.13;9.30;;;20.70;99.90;;;;;;5031774;28;20022;-72
2021/06/17 05:52:14;;;;;;;12.77;8.65;;;20.80;99.90;;;;;;5031770;28;20479;-72
2021/06/17 05:54:40;;;;;;;11.50;8.57;;;20.90;99.90;;;;;;5031664;28;20040;-72
2021/06/17 05:57:06;;;;;;;13.68;9.05;;;20.70;99.90;;;;;;5031796;28;20025;-72
2021/06/17 05:59:32;;;;;;;12.50;8.98;;;20.60;99.90;;;;;;5031603;28;20033;-72
2021/06/17 06:01:58;;;;;;;10.25;9.02;;;20.70;99.90;;;;;;5027995;28;20054;-72
2021/06/17 06:04:23;;;;;;;11.32;8.80;;;20.90;99.90;;;;;;5044428;28;20041;-72
2021/06/17 06:06:49;;;;;;;11.82;8.85;;;21.00;99.90;;;;;;5031629;28;20039;-72
2021/06/17 06:09:14;;;;;;;9.00;7.63;;;21.10;99.90;;;;;;5038318;28;20033;-75
2021/06/17 06:11:40;;;;;;;15.75;8.10;;;21.30;99.90;;;;;;5038536;28;20030;-74
2021/06/17 06:14:06;;;;;;;9.45;8.43;;;21.30;99.90;;;;;;5027053;28;20040;-75
2021/06/17 06:16:31;;;;;;;9.93;8.52;;;21.30;99.90;;;;;;5023827;28;20048;-75
2021/06/17 06:18:57;;;;;;;10.20;8.35;;;21.50;99.90;;;;;;5044996;28;20025;-75
2021/06/17 06:21:22;;;;;;;8.80;7.93;;;21.70;99.90;;;;;;5013698;28;20075;-74
2021/06/17 06:23:48;;;;;;;10.38;8.02;;;21.80;99.90;;;;;;5051333;28;20064;-75
2021/06/17 06:26:14;;;;;;;11.73;8.68;;;21.80;99.90;;;;;;5051386;28;20548;-75
2021/06/17 06:28:39;;;;;;;10.45;8.90;;;21.90;99.90;;;;;;5027486;28;20034;-75
2021/06/17 06:31:05;;;;;;;9.65;8.55;;;22.00;99.90;;;;;;5031243;28;20112;-75
2021/06/17 06:33:30;;;;;;;10.18;8.20;;;22.20;99.90;;;;;;5050792;28;20460;-74
2021/06/17 06:35:56;;;;;;;10.55;8.50;;;22.30;99.90;;;;;;5051332;28;20029;-75
2021/06/17 06:38:22;;;;;;;10.98;8.63;;;22.40;99.90;;;;;;5014052;28;20025;-76
2021/06/17 06:40:47;;;;;;;11.73;8.40;;;22.40;99.90;;;;;;5013661;28;20021;-75
2021/06/17 06:43:17;;;;;;;11.48;8.20;;;22.50;99.90;;;;;;5031317;28;20399;-74
2021/06/17 06:45:43;;;;;;;9.02;8.10;;;22.50;99.90;;;;;;5031205;28;20049;-75
2021/06/17 06:48:09;;;;;;;8.70;7.82;;;22.50;99.90;;;;;;5033799;28;20021;-75
2021/06/17 06:50:34;;;;;;;9.40;8.20;;;22.60;99.90;;;;;;5036916;28;20029;-75
2021/06/17 06:53:00;;;;;;;8.68;7.80;;;22.80;99.90;;;;;;5054746;28;20475;-75
2021/06/17 06:55:25;;;;;;;10.23;7.90;;;22.90;99.90;;;;;;5054936;28;20029;-75
2021/06/17 06:57:51;;;;;;;9.98;7.50;;;23.10;99.90;;;;;;5035565;28;20107;-75
2021/06/17 07:00:18;;;;;;;9.95;7.75;;;23.20;99.90;;;;;;5034896;28;20081;-75
2021/06/17 07:02:44;;;;;;;9.85;7.32;;;23.30;99.90;;;;;;5041903;28;20023;-74
2021/06/17 07:05:10;;;;;;;9.60;7.68;;;23.40;99.90;;;;;;5023896;28;20112;-74
2021/06/17 07:07:35;;;;;;;7.63;6.88;;;23.40;99.90;;;;;;5048068;28;20107;-74
2021/06/17 07:10:02;;;;;;;7.75;6.25;;;23.50;99.90;;;;;;5047666;28;20082;-74
2021/06/17 07:12:27;;;;;;;12.38;7.15;;;23.60;99.90;;;;;;5041449;28;20028;-75
2021/06/17 07:14:53;;;;;;;12.52;8.18;;;23.70;99.90;;;;;;5041583;28;20030;-75
2021/06/17 07:17:19;;;;;;;8.02;7.00;;;24.00;99.90;;;;;;5034761;28;20418;-74
2021/06/17 07:19:44;;;;;;;8.65;6.78;;;24.30;99.90;;;;;;5029784;28;20016;-75
2021/06/17 07:22:10;;;;;;;8.60;7.20;;;24.50;99.90;;;;;;5041161;28;20029;-75
2021/06/17 07:24:36;;;;;;;12.85;7.97;;;24.40;99.90;;;;;;5041501;28;20387;-75
2021/06/17 07:27:03;;;;;;;11.60;8.00;;;24.30;99.90;;;;;;5048031;28;20037;-74
2021/06/17 07:29:29;;;;;;;9.52;8.52;;;24.20;99.90;;;;;;5016639;28;20029;-75
2021/06/17 07:31:55;;;;;;;9.73;8.32;;;24.20;99.90;;;;;;5048032;28;20021;-75
2021/06/17 07:34:21;;;;;;;8.38;7.47;;;24.20;99.90;;;;;;5034455;28;20399;-75
2021/06/17 07:36:48;;;;;;;10.65;7.30;;;24.20;99.90;;;;;;5019765;28;20022;-74
2021/06/17 07:39:15;;;;;;;10.43;7.75;;;24.30;99.90;;;;;;5034209;28;20555;-74
2021/06/17 07:41:41;;;;;;;7.53;6.70;;;24.40;99.90;;;;;;5027631;28;20035;-75
2021/06/17 07:44:07;;;;;;;7.45;6.75;;;24.50;99.90;;;;;;5040934;28;20383;-74
2021/06/17 07:46:32;;;;;;;7.93;7.13;;;24.70;99.90;;;;;;5040858;28;20502;-75
2021/06/17 07:48:59;;;;;;;10.95;6.95;;;24.80;99.90;;;;;;5040880;28;20057;-74
2021/06/17 07:51:33;;;;;;;8.88;7.00;;;25.00;99.90;;;;;;5047237;28;20021;-75
2021/06/17 07:54:00;;;;;;;12.00;6.75;;;25.10;99.90;;;;;;5048604;28;20060;-74
2021/06/17 07:56:27;;;;;;;8.98;7.05;;;25.10;99.90;;;;;;5054179;28;20013;-74
2021/06/17 07:58:53;;;;;;;8.05;6.93;;;25.10;99.90;;;;;;5038919;28;20081;-74
2021/06/17 08:01:18;;;;;;;8.50;6.70;;;25.10;99.90;;;;;;5021018;28;20026;-74
2021/06/17 08:03:44;;;;;;;8.07;6.90;;;25.30;99.90;;;;;;5034434;28;20028;-74
2021/06/17 08:06:09;;;;;;;9.05;7.13;;;25.50;99.90;;;;;;5041483;28;20570;-74
2021/06/17 08:08:35;;;;;;;6.88;6.20;;;25.70;99.90;;;;;;5053937;28;20033;-74
2021/06/17 08:11:01;;;;;;;8.73;6.72;;;25.70;99.90;;;;;;5036291;28;20025;-74
2021/06/17 08:13:26;;;;;;;9.82;6.60;;;25.70;99.90;;;;;;5053950;28;20035;-74
2021/06/17 08:15:52;;;;;;;8.00;6.05;;;25.60;99.90;;;;;;5053986;28;20386;-73
2021/06/17 08:18:18;;;;;;;7.15;6.22;;;25.60;99.90;;;;;;5040298;28;20021;-74
2021/06/17 08:20:44;;;;;;;9.07;6.38;;;25.60;99.90;;;;;;5016612;28;20026;-74
2021/06/17 08:23:10;;;;;;;7.47;6.57;;;25.70;99.90;;;;;;5034865;28;20026;-74
2021/06/17 08:25:36;;;;;;;9.38;6.53;;;25.80;99.90;;;;;;5028827;28;20058;-74
2021/06/17 08:28:05;;;;;;;12.02;7.03;;;25.90;99.90;;;;;;5030617;28;20025;-74
2021/06/17 08:30:33;;;;;;;6.78;6.07;;;25.90;99.90;;;;;;5053729;28;20029;-74
2021/06/17 08:32:59;;;;;;;8.75;6.18;;;26.00;99.90;;;;;;5040195;28;20060;-74
2021/06/17 08:35:25;;;;;;;6.55;5.95;;;26.00;99.90;;;;;;5046037;28;20032;-74
2021/06/17 08:37:50;;;;;;;6.72;6.05;;;26.30;99.90;;;;;;5017522;28;20029;-73
2021/06/17 08:40:16;;;;;;;8.10;6.18;;;26.40;99.90;;;;;;5028196;28;20018;-74
2021/06/17 08:42:42;;;;;;;6.68;6.03;;;26.50;99.90;;;;;;5029760;28;20047;-73
2021/06/17 08:45:10;;;;;;;7.18;6.10;;;26.50;99.90;;;;;;5045781;28;20028;-74
2021/06/17 08:47:39;;;;;;;7.05;6.15;;;26.60;99.90;;;;;;5016063;28;20022;-74
2021/06/17 08:50:07;;;;;;;9.40;6.47;;;26.70;99.90;;;;;;5042291;28;20479;-74
2021/06/17 08:52:34;;;;;;;7.05;6.40;;;26.70;99.90;;;;;;5053673;28;20075;-74
2021/06/17 08:55:10;;;;;;;7.28;6.60;;;26.80;99.90;;;;;;5053391;28;20029;-74
2021/06/17 08:57:36;;;;;;;7.90;6.07;;;26.60;99.90;;;;;;5053410;28;20073;-74
2021/06/17 09:00:03;;;;;;;8.10;6.00;;;26.80;99.90;;;;;;5053740;28;20025;-73
2021/06/17 09:02:34;;;;;;;8.70;6.47;;;26.70;99.90;;;;;;5053536;28;20055;-73
2021/06/17 09:05:20;;;;;;;7.10;6.28;;;26.80;99.90;;;;;;5053676;28;20033;-74
2021/06/17 09:07:46;;;;;;;11.77;6.25;;;26.90;99.90;;;;;;5003735;28;20036;-73
2021/06/17 09:10:11;;;;;;;8.55;6.30;;;27.10;99.90;;;;;;5034541;28;20100;-74
2021/06/17 09:12:54;;;;;;;9.50;6.05;;;26.80;99.90;;;;;;5053979;28;20364;-74
2021/06/17 09:15:49;;;;;;;7.13;5.85;;;26.90;99.90;;;;;;5050961;28;20063;-74
2021/06/17 09:18:18;;;;;;;8.68;6.57;;;26.90;99.90;;;;;;5047651;28;20434;-74
2021/06/17 09:20:51;;;;;;;7.60;6.13;;;27.00;99.90;;;;;;5053243;28;20021;-74
2021/06/17 09:23:41;;;;;;;8.43;6.47;;;27.10;99.90;;;;;;5053367;28;20060;-74
2021/06/17 09:26:09;;;;;;;7.68;6.60;;;27.50;99.90;;;;;;5028850;28;20030;-74
2021/06/17 09:31:46;;;;;;;8.68;5.97;;;27.30;99.90;;;;;;5045841;28;20103;-74
2021/06/17 09:34:12;;;;;;;7.93;6.60;;;27.40;99.90;;;;;;5034438;28;20487;-74
2021/06/17 09:36:40;;;;;;;8.00;6.32;;;27.50;99.90;;;;;;5050923;28;20029;-73
2021/06/17 09:39:14;;;;;;;7.55;6.20;;;27.40;99.90;;;;;;5024448;28;20025;-74
2021/06/17 09:41:47;;;;;;;8.63;6.10;;;27.40;99.90;;;;;;5034695;28;20034;-74
2021/06/17 09:44:32;;;;;;;7.97;6.40;;;27.60;99.90;;;;;;5033672;28;20485;-74
2021/06/17 09:47:25;;;;;;;6.80;6.13;;;27.60;99.90;;;;;;5042580;28;20035;-74
2021/06/17 09:49:52;;;;;;;8.73;6.20;;;27.70;99.90;;;;;;5016992;28;20037;-74
2021/06/17 09:52:18;;;;;;;7.40;6.00;;;27.80;99.90;;;;;;5047627;28;20025;-74
2021/06/17 09:54:49;;;;;;;5.82;5.32;;;27.70;99.90;;;;;;5053632;28;20098;-74
2021/06/17 09:57:18;;;;;;;6.20;5.60;;;27.70;99.90;;;;;;5053591;28;20471;-74
2021/06/17 09:59:47;;;;;;;6.20;5.60;;;27.90;99.90;;;;;;5035187;28;20078;-74
2021/06/17 10:02:21;;;;;;;6.72;5.65;;;28.00;99.90;;;;;;5035032;28;20025;-74
2021/06/17 10:04:48;;;;;;;5.95;5.45;;;28.00;99.90;;;;;;5043449;28;20025;-74
2021/06/17 10:07:16;;;;;;;5.68;5.22;;;28.20;99.90;;;;;;5036053;28;20036;-74
2021/06/17 10:09:42;;;;;;;6.75;5.90;;;28.40;99.90;;;;;;5047651;28;20079;-74
2021/06/17 10:12:08;;;;;;;7.43;6.20;;;28.70;99.90;;;;;;5025513;28;20435;-74
2021/06/17 10:14:34;;;;;;;6.55;5.85;;;28.90;99.90;;;;;;5043840;28;20029;-73
2021/06/17 10:16:59;;;;;;;7.13;5.68;;;28.60;99.90;;;;;;5051128;28;20102;-73
2021/06/17 10:19:26;;;;;;;6.70;5.88;;;28.80;99.90;;;;;;5040625;28;20013;-73
2021/06/17 10:21:52;;;;;;;5.80;5.30;;;29.10;99.90;;;;;;5033798;28;20491;-73
2021/06/17 10:24:26;;;;;;;5.97;5.38;;;29.30;99.90;;;;;;5040333;28;20394;-73
2021/06/17 10:27:06;;;;;;;6.78;5.30;;;29.50;99.90;;;;;;5045210;28;20026;-72
2021/06/17 10:29:40;;;;;;;6.95;5.00;;;29.70;99.90;;;;;;5041008;28;20028;-73
2021/06/17 10:32:16;;;;;;;6.53;5.43;;;29.70;99.90;;;;;;5032414;28;20028;-74
2021/06/17 10:34:47;;;;;;;7.10;5.07;;;29.70;99.90;;;;;;5047232;28;20458;-73
2021/06/17 10:37:17;;;;;;;6.28;5.30;;;29.90;99.90;;;;;;5046422;28;20055;-73
2021/06/17 10:39:44;;;;;;;5.50;5.00;;;30.10;99.90;;;;;;5045385;28;20032;-73
2021/06/17 10:42:13;;;;;;;5.90;5.30;;;29.90;99.90;;;;;;5038186;28;20412;-73
2021/06/17 10:44:48;;;;;;;7.20;5.57;;;29.90;99.90;;;;;;5052843;28;20049;-73
2021/06/17 10:47:43;;;;;;;6.28;4.75;;;29.90;99.90;;;;;;5051650;28;20031;-73
2021/06/17 10:50:18;;;;;;;6.55;4.70;;;30.10;99.90;;;;;;5044465;28;20487;-73
2021/06/17 10:52:45;;;;;;;6.25;5.25;;;30.40;99.90;;;;;;5029784;28;20056;-73
2021/06/17 10:55:12;;;;;;;5.72;5.13;;;30.60;99.90;;;;;;5033271;28;20113;-73
2021/06/17 10:57:44;;;;;;;6.03;4.75;;;30.60;99.90;;;;;;5043056;28;20024;-73
2021/06/17 11:00:22;;;;;;;5.50;5.00;;;30.60;99.90;;;;;;5049658;28;20024;-73
2021/06/17 11:02:53;;;;;;;7.22;5.43;;;30.60;99.90;;;;;;5039218;28;20022;-73
2021/06/17 11:05:31;;;;;;;6.70;4.72;;;30.30;99.90;;;;;;5039242;28;20018;-73
2021/06/17 11:08:22;;;;;;;5.35;4.72;;;30.80;99.90;;;;;;5053279;28;20025;-74
2021/06/17 11:10:49;;;;;;;5.38;4.88;;;30.80;99.90;;;;;;5042772;28;20495;-74
2021/06/17 11:13:34;;;;;;;5.75;4.82;;;31.00;99.50;;;;;;5049213;28;20037;-74
2021/06/17 11:16:22;;;;;;;4.13;3.72;;;30.90;99.10;;;;;;5041360;28;20025;-73
2021/06/17 11:18:57;;;;;;;4.78;4.00;;;31.30;97.30;;;;;;5017764;28;20372;-73
2021/06/17 11:21:26;;;;;;;4.65;3.67;;;31.30;97.40;;;;;;5036035;28;20100;-73
2021/06/17 11:23:54;;;;;;;5.15;4.07;;;31.10;94.10;;;;;;5025668;28;20029;-73
2021/06/17 11:26:47;;;;;;;7.40;4.20;;;31.30;95.10;;;;;;5030354;28;20022;-73
2021/06/17 11:29:19;;;;;;;4.35;3.65;;;31.60;94.40;;;;;;5026729;28;20029;-74
2021/06/17 11:31:50;;;;;;;4.78;3.72;;;32.00;94.20;;;;;;5051360;28;20021;-73
2021/06/17 11:34:40;;;;;;;5.57;3.90;;;31.80;94.00;;;;;;5048663;28;20024;-74
2021/06/17 11:37:14;;;;;;;6.18;3.80;;;31.80;92.70;;;;;;5025242;28;20021;-73
2021/06/17 11:39:41;;;;;;;4.60;4.20;;;31.80;94.70;;;;;;5044737;28;20101;-73
2021/06/17 11:42:15;;;;;;;4.43;3.90;;;31.70;93.30;;;;;;5025343;28;20028;-73
2021/06/17 11:44:41;;;;;;;5.15;3.83;;;31.40;93.20;;;;;;5043922;28;20021;-73
2021/06/17 11:47:14;;;;;;;3.70;3.40;;;31.60;94.20;;;;;;5033260;28;20052;-73
2021/06/17 11:49:43;;;;;;;4.13;3.72;;;32.00;92.40;;;;;;5028033;28;20017;-73
2021/06/17 11:52:19;;;;;;;5.18;3.78;;;32.40;90.90;;;;;;5045940;28;20029;-74
2021/06/17 11:54:46;;;;;;;5.07;4.38;;;32.30;90.90;;;;;;5040732;28;20028;-74
2021/06/17 11:57:13;;;;;;;4.70;3.72;;;32.00;88.20;;;;;;5042876;28;20039;-73
2021/06/17 11:59:42;;;;;;;3.70;3.40;;;32.10;89.40;;;;;;5037644;28;20017;-73
2021/06/17 12:02:25;;;;;;;4.50;3.60;;;32.60;89.60;;;;;;5036242;28;20022;-73
2021/06/17 12:04:56;;;;;;;4.47;3.47;;;33.00;87.70;;;;;;5041538;28;20040;-73
2021/06/17 12:07:27;;;;;;;5.47;3.67;;;32.60;88.40;;;;;;5039295;28;20426;-73
2021/06/17 12:09:54;;;;;;;3.67;3.22;;;32.60;86.90;;;;;;5044655;28;20506;-73
2021/06/17 12:12:24;;;;;;;3.17;2.72;;;33.10;85.20;;;;;;5042201;28;20549;-72
2021/06/17 12:14:55;;;;;;;3.25;2.95;;;33.20;84.90;;;;;;5037284;28;20037;-73
2021/06/17 12:17:42;;;;;;;2.97;2.72;;;33.10;79.40;;;;;;5024765;28;20022;-74
2021/06/17 12:20:33;;;;;;;3.17;2.88;;;33.30;80.40;;;;;;5040368;28;20103;-73
2021/06/17 12:22:59;;;;;;;4.78;2.90;;;33.30;78.00;;;;;;5023077;28;20021;-73
2021/06/17 12:25:29;;;;;;;5.63;2.80;;;33.10;76.80;;;;;;5041564;28;20017;-73
2021/06/17 12:27:59;;;;;;;3.90;3.03;;;33.10;78.30;;;;;;5040670;28;20173;-73
2021/06/17 12:30:28;;;;;;;3.10;2.90;;;33.20;79.60;;;;;;5040155;28;20015;-74
2021/06/17 12:33:18;;;;;;;3.25;2.95;;;33.20;83.50;;;;;;5042959;28;20021;-73
2021/06/17 12:36:02;;;;;;;7.25;3.33;;;33.60;79.90;;;;;;5027657;28;20021;-73
2021/06/17 12:38:36;;;;;;;3.90;3.30;;;33.50;77.00;;;;;;5039348;28;20017;-73
2021/06/17 12:41:16;;;;;;;3.83;3.43;;;33.30;86.00;;;;;;5034054;28;20021;-73
2021/06/17 12:43:48;;;;;;;4.32;3.92;;;33.20;81.70;;;;;;5045589;28;20098;-74
2021/06/17 12:46:15;;;;;;;5.15;3.45;;;34.00;75.40;;;;;;5041460;28;20074;-73
2021/06/17 12:54:30;;;;;;;3.78;3.38;;;34.20;75.20;;;;;;5000318;28;20032;-74
2021/06/17 12:57:00;;;;;;;3.63;3.33;;;34.00;75.00;;;;;;5032096;28;20025;-73
2021/06/17 12:59:49;;;;;;;7.10;3.50;;;33.50;74.90;;;;;;5027327;28;20017;-75
2021/06/17 13:02:35;;;;;;;4.63;3.45;;;33.50;76.00;;;;;;5042369;28;20529;-74
2021/06/17 13:05:19;;;;;;;5.88;3.75;;;34.20;73.70;;;;;;5046677;28;20033;-75